Terminal Aerodrome Forecast
Issued by NWS Omaha/Valley, NE

Home | Current Version | Previous Version | Graphics & Text | Print | Product List | Glossary On
Versions: 1 2 3 4 5 6 7 8 9 10 11 12 13 14
000
FTUS43 KOAX 230229 AAB
TAFOFK
TAF AMD
KOFK 230229Z 2302/2324 36012KT P6SM SCT025 BKN100
     FM230600 34007KT P6SM FEW250
     FM231100 32010KT P6SM SCT200
     FM231500 32015G23KT P6SM BKN120=

USA.gov is the U.S. government's official web portal to all federal, state and local government web resources and services.